Time;durP1;ratioP1;P1;durP2;ratioP2;P2;SDS_P1;SDS_P2;PMS_P1;PMS_P2;Temp;Humidity;BMP_temperature;BMP_pressure;BME280_temperature;BME280_humidity;BME280_pressure;Samples;Min_cycle;Max_cycle;Signal;HPM_P1;HPM_P2
2023/04/17 00:00:14;;;;;;;34.50;19.58;;;;;;;7.70;54.32;102608.75;5007521;28;20132;-72
2023/04/17 00:02:39;;;;;;;28.52;16.05;;;;;;;7.76;54.33;102609.59;5010351;28;20083;-69
2023/04/17 00:05:09;;;;;;;32.40;18.65;;;;;;;7.70;54.03;102607.88;5007288;28;20119;-70
2023/04/17 00:07:37;;;;;;;36.35;18.85;;;;;;;7.67;54.53;102613.97;5006129;28;20038;-70
2023/04/17 00:10:07;;;;;;;30.38;16.08;;;;;;;7.72;54.37;102609.59;5010270;28;20037;-74
2023/04/17 00:12:33;;;;;;;32.53;17.52;;;;;;;7.76;54.22;102607.00;5005091;28;20092;-73
2023/04/17 00:14:59;;;;;;;30.90;17.42;;;;;;;7.80;54.14;102606.13;5010578;28;20038;-70
2023/04/17 00:17:24;;;;;;;34.53;18.10;;;;;;;7.78;54.08;102606.16;5006078;28;20040;-70
2023/04/17 00:19:50;;;;;;;35.92;18.30;;;;;;;7.85;53.85;102601.81;5009095;28;20126;-71
2023/04/17 00:22:15;;;;;;;33.72;17.70;;;;;;;7.78;53.96;102600.94;5009266;28;20509;-71
2023/04/17 00:24:41;;;;;;;39.65;19.38;;;;;;;7.90;53.96;102603.53;4993298;28;20117;-71
2023/04/17 00:27:06;;;;;;;36.85;18.48;;;;;;;7.91;53.67;102602.66;5008139;28;20497;-71
2023/04/17 00:29:33;;;;;;;32.63;19.40;;;;;;;7.88;53.93;102604.41;5005475;28;20117;-71
2023/04/17 00:31:58;;;;;;;30.38;18.17;;;;;;;7.85;53.77;102597.47;5012866;28;20040;-72
2023/04/17 00:34:24;;;;;;;30.05;16.98;;;;;;;7.86;53.99;102600.94;5010460;28;20037;-71
2023/04/17 00:36:49;;;;;;;34.50;18.95;;;;;;;7.90;53.93;102600.91;5010484;28;20047;-72
2023/04/17 00:39:15;;;;;;;37.30;20.30;;;;;;;7.98;53.57;102606.13;5011622;28;20095;-73
2023/04/17 00:41:40;;;;;;;32.75;17.85;;;;;;;7.85;53.61;102602.66;5012814;28;20524;-73
2023/04/17 00:44:06;;;;;;;34.47;16.92;;;;;;;7.84;53.68;102606.13;5006411;28;20520;-72
2023/04/17 00:46:31;;;;;;;30.00;16.52;;;;;;;7.84;53.76;102606.13;5010554;28;20405;-72
2023/04/17 00:48:57;;;;;;;29.92;16.88;;;;;;;7.82;53.65;102607.84;4984607;28;20045;-73
2023/04/17 00:51:23;;;;;;;29.90;17.48;;;;;;;7.83;53.56;102598.34;5005364;28;20034;-72
2023/04/17 00:53:49;;;;;;;29.65;17.35;;;;;;;7.85;53.75;102607.00;4984515;28;20048;-72
2023/04/17 00:56:15;;;;;;;26.48;15.23;;;;;;;7.82;53.77;102601.78;4994772;28;20034;-72
2023/04/17 00:58:41;;;;;;;32.85;18.23;;;;;;;7.86;53.57;102603.53;5010988;28;20095;-73
2023/04/17 01:01:07;;;;;;;35.00;18.15;;;;;;;7.82;53.51;102607.00;5011579;28;20033;-71
2023/04/17 01:03:32;;;;;;;34.90;19.48;;;;;;;7.87;53.17;102600.94;5009461;28;20502;-72
2023/04/17 01:05:58;;;;;;;38.05;20.52;;;;;;;7.81;53.00;102605.28;5011994;28;20041;-73
2023/04/17 01:08:24;;;;;;;40.53;20.00;;;;;;;7.71;53.55;102609.59;5010332;28;20033;-72
2023/04/17 01:10:50;;;;;;;34.45;18.40;;;;;;;7.68;53.61;102607.88;5023308;28;20029;-74
2023/04/17 01:13:16;;;;;;;34.00;20.00;;;;;;;7.65;53.38;102605.28;5007960;28;20033;-75
2023/04/17 01:15:45;;;;;;;31.75;17.60;;;;;;;7.66;53.42;102608.75;5006950;28;20034;-74
2023/04/17 01:18:11;;;;;;;32.42;18.77;;;;;;;7.63;53.79;102609.63;5011657;28;20056;-75
2023/04/17 01:20:36;;;;;;;33.47;18.52;;;;;;;7.62;53.84;102607.88;5004197;28;20034;-74
2023/04/17 01:23:02;;;;;;;36.25;20.98;;;;;;;7.58;53.58;102613.97;5014293;28;20128;-75
2023/04/17 01:25:28;;;;;;;34.65;18.65;;;;;;;7.54;53.94;102609.59;4991023;28;20101;-75
2023/04/17 01:27:53;;;;;;;39.33;20.17;;;;;;;7.45;53.72;102612.19;4995707;28;20029;-75
2023/04/17 01:30:19;;;;;;;32.38;18.40;;;;;;;7.58;53.51;102606.16;5008746;28;20525;-72
2023/04/17 01:32:55;;;;;;;29.98;17.30;;;;;;;7.61;53.45;102613.94;4993202;28;20523;-72
2023/04/17 01:35:21;;;;;;;32.85;18.08;;;;;;;7.51;53.42;102607.84;5008418;28;20509;-72
2023/04/17 01:37:46;;;;;;;33.90;19.13;;;;;;;7.42;53.56;102613.06;5009254;28;20561;-72
2023/04/17 01:40:15;;;;;;;31.92;19.13;;;;;;;7.42;53.59;102622.56;5009248;28;20041;-72
2023/04/17 01:42:40;;;;;;;35.08;17.70;;;;;;;7.30;53.80;102619.09;5008733;28;20033;-70
2023/04/17 01:45:06;;;;;;;36.45;18.05;;;;;;;7.21;53.89;102619.06;5012541;28;20490;-69
2023/04/17 01:47:32;;;;;;;32.55;20.05;;;;;;;7.14;54.25;102616.47;4990726;28;20033;-71
2023/04/17 01:49:58;;;;;;;37.08;19.13;;;;;;;7.10;54.28;102608.63;5010441;28;20190;-71
2023/04/17 01:52:23;;;;;;;33.38;18.90;;;;;;;7.05;54.24;102615.56;5005555;28;20034;-70
2023/04/17 01:54:49;;;;;;;34.03;18.52;;;;;;;7.08;54.42;102623.38;5010534;28;20136;-70
2023/04/17 01:57:14;;;;;;;30.30;16.90;;;;;;;7.06;54.37;102614.69;5010782;28;20494;-70
2023/04/17 01:59:40;;;;;;;37.05;18.83;;;;;;;7.12;54.28;102626.84;5009510;28;20049;-70
2023/04/17 02:02:05;;;;;;;38.40;19.20;;;;;;;7.08;54.38;102617.31;5004587;28;20049;-70
2023/04/17 02:04:31;;;;;;;41.28;19.58;;;;;;;7.06;54.39;102611.22;5007370;28;20045;-74
2023/04/17 02:06:56;;;;;;;35.45;20.27;;;;;;;6.96;54.41;102623.34;5009798;28;20482;-74
2023/04/17 02:09:22;;;;;;;36.78;20.40;;;;;;;6.94;54.99;102624.22;5019340;28;20044;-76
2023/04/17 02:11:47;;;;;;;35.08;19.35;;;;;;;6.90;54.78;102631.97;5026282;28;20025;-72
2023/04/17 02:14:13;;;;;;;38.67;19.65;;;;;;;6.85;55.09;102631.09;5030222;28;20059;-71
2023/04/17 02:16:44;;;;;;;41.42;21.23;;;;;;;6.83;54.93;102627.63;5010279;28;20397;-70
2023/04/17 02:19:11;;;;;;;35.33;18.55;;;;;;;6.83;55.42;102627.63;5010322;28;20044;-71
2023/04/17 02:21:36;;;;;;;34.45;19.67;;;;;;;6.82;55.16;102623.31;5024773;28;20029;-70
2023/04/17 02:24:03;;;;;;;36.15;19.33;;;;;;;6.80;55.38;102625.03;5029215;28;20045;-71
2023/04/17 02:26:29;;;;;;;35.95;20.77;;;;;;;6.84;55.12;102624.19;5011441;28;20563;-71
2023/04/17 02:28:54;;;;;;;37.13;20.65;;;;;;;6.83;55.14;102617.22;4998506;28;20410;-69
2023/04/17 02:31:20;;;;;;;38.10;21.42;;;;;;;6.82;55.17;102620.72;5001659;28;20095;-69
2023/04/17 02:33:46;;;;;;;41.00;20.77;;;;;;;6.81;55.18;102628.50;5024442;28;20056;-73
2023/04/17 02:36:11;;;;;;;33.22;18.20;;;;;;;6.85;55.06;102625.91;5015411;28;20055;-68
2023/04/17 02:38:39;;;;;;;38.53;20.00;;;;;;;6.81;55.38;102629.34;5000599;28;20097;-70
2023/04/17 02:41:05;;;;;;;33.00;20.15;;;;;;;6.79;55.19;102625.88;5041623;28;20021;-72
2023/04/17 02:43:31;;;;;;;34.65;18.33;;;;;;;6.78;55.39;102631.94;5026969;28;20071;-73
2023/04/17 02:45:57;;;;;;;33.47;18.75;;;;;;;6.82;55.28;102633.69;5028287;28;20025;-70
2023/04/17 02:48:24;;;;;;;40.38;20.00;;;;;;;6.76;55.59;102630.22;5004197;28;20029;-72
2023/04/17 02:50:50;;;;;;;38.03;20.88;;;;;;;6.71;55.55;102630.19;5011354;28;20088;-73
2023/04/17 02:53:18;;;;;;;36.97;21.77;;;;;;;6.71;55.67;102632.78;5010924;28;20280;-71
2023/04/17 02:55:47;;;;;;;37.30;20.40;;;;;;;6.71;55.92;102632.78;4987255;28;20056;-72
2023/04/17 02:58:14;;;;;;;38.83;20.27;;;;;;;6.74;55.73;102626.72;4981080;28;20585;-70
2023/04/17 03:00:40;;;;;;;40.92;20.92;;;;;;;6.62;55.99;102630.13;5035696;28;20113;-68
2023/04/17 03:03:08;;;;;;;35.58;20.88;;;;;;;6.66;56.09;102631.88;5001902;28;20037;-71
2023/04/17 03:05:34;;;;;;;39.70;20.55;;;;;;;6.69;55.73;102639.72;5007746;28;20975;-69
2023/04/17 03:08:00;;;;;;;42.92;21.35;;;;;;;6.73;55.59;102630.19;5008770;28;20446;-71
2023/04/17 03:10:30;;;;;;;39.20;20.30;;;;;;;6.76;55.56;102630.22;4953131;28;20544;-71
2023/04/17 03:12:56;;;;;;;36.83;19.35;;;;;;;6.76;55.40;102636.28;5010620;28;20116;-71
2023/04/17 03:15:21;;;;;;;35.47;20.58;;;;;;;6.81;55.58;102639.75;5004803;28;20049;-72
2023/04/17 03:17:47;;;;;;;36.83;19.70;;;;;;;6.75;55.83;102639.72;4993994;28;20084;-70
2023/04/17 03:20:14;;;;;;;41.47;21.33;;;;;;;6.73;55.99;102643.16;5019878;28;20608;-70
2023/04/17 03:22:40;;;;;;;36.90;19.17;;;;;;;6.70;56.20;102642.28;5009493;28;20936;-70
2023/04/17 03:25:06;;;;;;;36.72;19.75;;;;;;;6.74;56.18;102647.53;5006056;28;20044;-70
2023/04/17 03:27:58;;;;;;;40.88;21.30;;;;;;;6.70;56.21;102652.69;5009350;28;20411;-69
2023/04/17 03:30:29;;;;;;;41.22;19.00;;;;;;;6.75;56.16;102644.91;5007103;28;20038;-69
2023/04/17 03:32:57;;;;;;;34.20;18.75;;;;;;;6.73;56.11;102651.88;5005537;28;20033;-69
2023/04/17 03:35:23;;;;;;;32.50;17.38;;;;;;;6.75;55.95;102654.44;4998093;28;20063;-70
2023/04/17 03:37:49;;;;;;;31.70;17.90;;;;;;;6.70;56.09;102641.44;5005722;28;20443;-70
2023/04/17 03:40:15;;;;;;;41.30;20.27;;;;;;;6.78;56.14;102651.88;4998347;28;20102;-69
2023/04/17 03:42:42;;;;;;;42.95;20.33;;;;;;;6.74;56.08;102648.38;4993139;28;20108;-69
2023/04/17 03:45:09;;;;;;;33.95;18.27;;;;;;;6.79;56.25;102651.88;5007965;28;20025;-70
2023/04/17 03:47:34;;;;;;;28.83;17.13;;;;;;;6.85;56.00;102657.09;5005628;28;20514;-69
2023/04/17 03:49:59;;;;;;;31.10;17.00;;;;;;;6.87;56.17;102662.31;4994516;28;20052;-69
2023/04/17 03:52:28;;;;;;;30.85;16.25;;;;;;;6.91;56.02;102662.31;5012519;28;20120;-69
2023/04/17 03:54:56;;;;;;;35.47;17.77;;;;;;;6.87;55.70;102660.56;5001881;28;20045;-72
2023/04/17 03:57:24;;;;;;;33.17;16.35;;;;;;;6.82;55.77;102662.28;5025294;28;20120;-71
2023/04/17 03:59:49;;;;;;;32.67;17.42;;;;;;;6.75;56.12;102660.50;5012682;28;20132;-71
2023/04/17 04:02:16;;;;;;;31.52;16.75;;;;;;;6.77;55.97;102668.31;4993182;28;20036;-71
2023/04/17 04:04:46;;;;;;;39.25;18.08;;;;;;;6.70;55.99;102667.41;4972914;28;20057;-71
2023/04/17 04:07:14;;;;;;;29.52;15.45;;;;;;;6.65;56.24;102669.13;5010410;28;20021;-72
2023/04/17 04:09:39;;;;;;;28.92;16.63;;;;;;;6.71;56.41;102663.97;4991693;28;20099;-69
2023/04/17 04:12:07;;;;;;;32.35;16.65;;;;;;;6.75;56.25;102662.25;5010599;28;20033;-70
2023/04/17 04:14:38;;;;;;;30.88;17.52;;;;;;;6.79;56.01;102662.25;4999798;28;20545;-71
2023/04/17 04:17:04;;;;;;;35.45;17.50;;;;;;;6.80;56.05;102664.00;5013195;28;20148;-70
2023/04/17 04:19:29;;;;;;;31.45;17.38;;;;;;;6.73;55.97;102669.16;4999242;28;20075;-71
2023/04/17 04:21:56;;;;;;;29.73;16.10;;;;;;;6.76;56.15;102669.19;5008663;28;20219;-71
2023/04/17 04:24:28;;;;;;;31.85;16.90;;;;;;;6.74;56.19;102666.56;5012071;28;20043;-71
2023/04/17 04:27:04;;;;;;;31.67;17.05;;;;;;;6.76;56.19;102672.66;5009331;28;20029;-71
2023/04/17 04:29:33;;;;;;;29.98;16.20;;;;;;;6.77;55.95;102673.50;5005568;28;20326;-71
2023/04/17 04:32:03;;;;;;;35.55;17.33;;;;;;;6.83;56.02;102669.22;4999622;28;20179;-70
2023/04/17 04:34:35;;;;;;;30.95;17.48;;;;;;;6.79;56.21;102672.66;4976646;28;20106;-71
2023/04/17 04:37:01;;;;;;;32.58;17.23;;;;;;;6.86;55.59;102673.56;4999430;28;20451;-69
2023/04/17 04:39:40;;;;;;;31.98;17.52;;;;;;;6.88;55.83;102671.84;5011060;28;20506;-71
2023/04/17 04:42:08;;;;;;;27.80;15.43;;;;;;;6.84;56.00;102683.97;5014212;28;20072;-71
2023/04/17 04:44:51;;;;;;;30.35;17.75;;;;;;;6.87;56.18;102677.91;4995424;28;20136;-71
2023/04/17 04:47:18;;;;;;;36.90;17.92;;;;;;;6.94;56.12;102678.81;4996235;28;20025;-71
2023/04/17 04:49:46;;;;;;;34.17;18.02;;;;;;;6.89;56.14;102682.25;5009836;28;20069;-71
2023/04/17 04:52:14;;;;;;;34.13;16.17;;;;;;;7.06;55.63;102684.03;5011185;28;20035;-71
2023/04/17 04:54:40;;;;;;;32.28;17.08;;;;;;;7.05;55.49;102690.13;5006190;28;20571;-70
2023/04/17 04:57:06;;;;;;;40.63;17.17;;;;;;;7.00;55.76;102691.81;5011816;28;20101;-71
2023/04/17 04:59:33;;;;;;;33.88;17.63;;;;;;;7.01;55.92;102689.22;5017218;28;20123;-70
2023/04/17 05:02:17;;;;;;;36.05;16.02;;;;;;;7.03;56.00;102689.22;5031834;28;20063;-71
2023/04/17 05:04:43;;;;;;;28.15;16.33;;;;;;;7.25;55.55;102692.78;5020277;28;20119;-70
2023/04/17 05:07:10;;;;;;;28.08;15.63;;;;;;;7.14;55.79;102695.34;5033555;28;20057;-70
2023/04/17 05:09:37;;;;;;;35.08;15.82;;;;;;;7.28;55.34;102703.19;4980619;28;20037;-71
2023/04/17 05:12:05;;;;;;;32.60;15.73;;;;;;;7.26;55.81;102699.69;4992389;28;20037;-71
2023/04/17 05:14:31;;;;;;;30.48;15.52;;;;;;;7.17;55.67;102705.75;4998522;28;20660;-71
2023/04/17 05:17:00;;;;;;;32.78;16.42;;;;;;;7.47;54.83;102704.13;5011081;28;20032;-71
2023/04/17 05:19:26;;;;;;;25.17;15.82;;;;;;;7.48;55.27;102705.84;5026928;28;20212;-71
2023/04/17 05:21:56;;;;;;;31.90;15.75;;;;;;;7.51;55.01;102705.84;5023469;28;20154;-70
2023/04/17 05:24:22;;;;;;;33.80;17.00;;;;;;;7.64;54.61;102715.44;5028140;28;20518;-71
2023/04/17 05:26:48;;;;;;;27.45;14.98;;;;;;;7.83;54.14;102712.88;5030511;28;20073;-70
2023/04/17 05:29:14;;;;;;;27.17;15.77;;;;;;;7.94;54.37;102716.34;5024155;28;20557;-71
2023/04/17 05:31:40;;;;;;;29.27;15.60;;;;;;;7.87;53.97;102715.47;5013560;28;20650;-71
2023/04/17 05:34:14;;;;;;;29.17;15.45;;;;;;;7.96;54.05;102714.63;5030188;28;20049;-70
2023/04/17 05:36:39;;;;;;;26.25;15.23;;;;;;;8.04;53.61;102718.06;5013004;28;20033;-71
2023/04/17 05:39:05;;;;;;;24.75;14.48;;;;;;;8.21;53.22;102719.84;5029516;28;20192;-71
2023/04/17 05:41:30;;;;;;;28.92;15.10;;;;;;;8.09;53.28;102721.56;5032380;28;20108;-71
2023/04/17 05:43:56;;;;;;;28.73;15.40;;;;;;;8.26;53.03;102723.28;5008992;28;20424;-71
2023/04/17 05:46:21;;;;;;;27.42;14.10;;;;;;;8.24;52.84;102719.81;5015486;28;20029;-71
2023/04/17 05:48:47;;;;;;;28.92;15.27;;;;;;;8.29;53.45;102718.97;4993963;28;20099;-71
2023/04/17 05:51:12;;;;;;;25.67;13.90;;;;;;;8.28;53.58;102722.41;5006871;28;20209;-71
2023/04/17 05:53:38;;;;;;;23.77;13.75;;;;;;;8.59;53.29;102721.53;5001071;28;20042;-70
2023/04/17 05:56:04;;;;;;;25.80;14.32;;;;;;;8.64;52.90;102720.63;5006773;28;21554;-71
2023/04/17 05:58:34;;;;;;;27.58;15.52;;;;;;;8.69;52.62;102718.84;4988116;28;20061;-71
2023/04/17 06:01:06;;;;;;;26.15;14.23;;;;;;;8.89;52.35;102725.78;5033572;28;20470;-71
2023/04/17 06:03:33;;;;;;;28.08;13.70;;;;;;;9.11;51.49;102726.59;4973162;28;20413;-70
2023/04/17 06:06:09;;;;;;;29.85;15.05;;;;;;;9.21;51.63;102728.28;5018805;28;20039;-71
2023/04/17 06:08:35;;;;;;;26.08;13.80;;;;;;;9.23;51.31;102721.31;5024255;28;20049;-70
2023/04/17 06:11:00;;;;;;;24.83;13.18;;;;;;;9.12;51.37;102730.91;5031344;28;20071;-70
2023/04/17 06:13:27;;;;;;;26.42;14.18;;;;;;;9.23;51.10;102731.75;5031996;28;20083;-70
2023/04/17 06:15:53;;;;;;;24.75;12.73;;;;;;;9.39;51.38;102727.34;5011173;28;20573;-71
2023/04/17 06:18:20;;;;;;;28.40;13.50;;;;;;;9.34;50.80;102734.28;5031068;28;20124;-70
2023/04/17 06:20:46;;;;;;;26.95;12.68;;;;;;;9.16;51.42;102736.13;5031713;28;20037;-71
2023/04/17 06:23:12;;;;;;;28.50;13.73;;;;;;;9.32;51.09;102736.94;5033611;28;20033;-71
2023/04/17 06:25:37;;;;;;;28.23;15.30;;;;;;;9.34;51.84;102740.41;5024637;28;20051;-71
2023/04/17 06:28:03;;;;;;;21.38;14.07;;;;;;;9.59;50.50;102745.50;5016248;28;20126;-70
2023/04/17 06:30:28;;;;;;;20.80;14.05;;;;;;;9.67;51.12;102746.28;5027153;28;20567;-70
2023/04/17 06:32:56;;;;;;;25.55;14.80;;;;;;;9.80;50.86;102745.34;5025828;28;20127;-70
2023/04/17 06:35:21;;;;;;;27.13;14.07;;;;;;;10.13;49.48;102743.38;5030313;28;20135;-71
2023/04/17 06:37:59;;;;;;;24.40;14.02;;;;;;;10.32;48.89;102751.06;5028675;28;20025;-70
2023/04/17 06:40:25;;;;;;;24.77;14.15;;;;;;;10.39;48.68;102748.38;4980945;28;20064;-71
2023/04/17 06:42:50;;;;;;;25.42;13.48;;;;;;;10.43;49.27;102746.59;5024337;28;20380;-70
2023/04/17 06:45:20;;;;;;;25.30;13.77;;;;;;;10.43;48.81;102746.59;5001283;28;20439;-71
2023/04/17 06:47:45;;;;;;;26.02;13.02;;;;;;;10.16;49.17;102751.19;5000798;28;20549;-70
2023/04/17 06:50:17;;;;;;;26.42;14.10;;;;;;;10.55;49.22;102759.56;5025386;28;20033;-70
2023/04/17 06:52:42;;;;;;;21.85;13.10;;;;;;;10.61;48.74;102756.84;5027891;28;20079;-71
2023/04/17 06:55:09;;;;;;;29.08;14.35;;;;;;;10.57;49.49;102760.41;5028951;28;20494;-70
2023/04/17 06:57:34;;;;;;;24.15;13.18;;;;;;;10.61;48.52;102756.84;5029500;28;20354;-70
2023/04/17 07:00:01;;;;;;;26.27;12.93;;;;;;;10.70;48.29;102762.88;5023170;28;20175;-70
2023/04/17 07:02:26;;;;;;;24.90;14.35;;;;;;;10.98;47.70;102759.13;5030041;28;20032;-70
2023/04/17 07:04:53;;;;;;;27.75;13.80;;;;;;;10.87;47.78;102768.84;5024744;28;20036;-71
2023/04/17 07:07:22;;;;;;;18.10;12.40;;;;;;;11.05;47.79;102771.25;5025254;28;20054;-70
2023/04/17 07:09:47;;;;;;;26.58;13.93;;;;;;;11.24;47.10;102771.00;4993747;28;20099;-70
2023/04/17 07:12:14;;;;;;;25.55;14.00;;;;;;;11.16;47.04;102770.25;5008228;28;20445;-71
2023/04/17 07:14:39;;;;;;;29.83;14.43;;;;;;;11.13;47.39;102776.41;4984980;28;20037;-70
2023/04/17 07:17:05;;;;;;;23.50;13.80;;;;;;;11.31;46.88;102770.06;5019890;28;20041;-71
2023/04/17 07:19:34;;;;;;;21.75;12.95;;;;;;;11.72;45.63;102775.63;5021989;28;20136;-71
2023/04/17 07:22:00;;;;;;;26.85;14.93;;;;;;;11.75;45.80;102775.56;5001992;28;20033;-70
2023/04/17 07:24:27;;;;;;;23.90;14.85;;;;;;;11.97;45.26;102773.53;5007966;28;20029;-71
2023/04/17 07:26:53;;;;;;;22.35;12.55;;;;;;;11.66;45.34;102787.03;5004599;28;20324;-70
2023/04/17 07:29:20;;;;;;;29.50;13.82;;;;;;;12.14;43.59;102775.88;4985968;28;20478;-70
2023/04/17 07:31:46;;;;;;;19.98;13.60;;;;;;;11.92;43.93;102784.06;5003804;28;20495;-70
2023/04/17 07:34:12;;;;;;;25.58;14.82;;;;;;;11.61;45.66;102783.63;5007627;28;20652;-71
2023/04/17 07:36:37;;;;;;;22.67;13.63;;;;;;;11.63;44.87;102787.09;5009329;28;20224;-71
2023/04/17 07:39:03;;;;;;;23.35;14.43;;;;;;;11.86;43.65;102794.63;5006891;28;20968;-70
2023/04/17 07:41:29;;;;;;;22.75;13.90;;;;;;;12.06;43.77;102802.19;4995509;28;20037;-70
2023/04/17 07:43:55;;;;;;;22.25;13.35;;;;;;;12.40;43.06;102796.41;5008966;28;20537;-70
2023/04/17 07:46:21;;;;;;;22.63;13.32;;;;;;;12.27;43.09;102801.00;5015210;28;20025;-70
2023/04/17 07:48:46;;;;;;;22.40;13.77;;;;;;;12.63;41.21;102799.50;5017275;28;20564;-70
2023/04/17 07:51:12;;;;;;;23.45;13.93;;;;;;;12.46;41.60;102802.41;5033803;28;20025;-70
2023/04/17 07:53:37;;;;;;;23.42;14.10;;;;;;;12.84;40.65;102802.66;5027951;28;20429;-70
2023/04/17 07:56:04;;;;;;;21.00;13.05;;;;;;;12.70;40.62;102798.50;5034894;28;20555;-70
2023/04/17 07:58:30;;;;;;;22.83;13.30;;;;;;;12.84;40.21;102807.88;5033320;28;20043;-70
2023/04/17 08:00:58;;;;;;;20.73;12.63;;;;;;;12.78;40.55;102813.25;5031216;28;20040;-71
2023/04/17 08:03:24;;;;;;;18.42;12.32;;;;;;;13.03;40.26;102811.91;5031460;28;20029;-71
2023/04/17 08:05:50;;;;;;;21.73;11.70;;;;;;;13.24;38.61;102812.34;5030635;28;20033;-70
2023/04/17 08:08:16;;;;;;;20.02;11.95;;;;;;;13.22;39.14;102815.00;5030705;28;20150;-71
2023/04/17 08:10:42;;;;;;;19.55;12.35;;;;;;;13.36;38.46;102819.13;5032162;28;20043;-70
2023/04/17 08:13:08;;;;;;;15.57;10.15;;;;;;;13.42;38.21;102816.38;5021981;28;20033;-72
2023/04/17 08:15:33;;;;;;;14.50;10.48;;;;;;;13.29;37.45;102815.75;5031154;28;20064;-70
2023/04/17 08:17:58;;;;;;;22.05;11.40;;;;;;;13.59;36.59;102813.41;5031885;28;20120;-71
2023/04/17 08:20:24;;;;;;;16.73;10.55;;;;;;;13.20;37.09;102815.94;5033379;28;20477;-71
2023/04/17 08:22:49;;;;;;;20.83;11.57;;;;;;;13.51;37.37;102810.91;5033042;28;20052;-69
2023/04/17 08:25:15;;;;;;;21.52;9.52;;;;;;;13.35;37.18;102822.66;5032211;28;20128;-70
2023/04/17 08:27:42;;;;;;;20.73;10.35;;;;;;;13.68;36.48;102818.47;5031929;28;20349;-71
2023/04/17 08:30:11;;;;;;;24.15;10.85;;;;;;;13.46;36.98;102820.66;5033889;28;20082;-71
2023/04/17 08:32:45;;;;;;;16.67;10.40;;;;;;;14.03;35.81;102816.78;5030571;28;20029;-71
2023/04/17 08:35:12;;;;;;;15.30;9.93;;;;;;;14.13;35.81;102816.53;5031679;28;20481;-70
2023/04/17 08:37:38;;;;;;;16.15;9.73;;;;;;;13.74;35.82;102826.19;5029993;28;20025;-70
2023/04/17 08:40:08;;;;;;;18.38;10.77;;;;;;;14.13;35.94;102816.53;5032660;28;20037;-69
2023/04/17 08:42:35;;;;;;;20.45;11.68;;;;;;;14.29;35.10;102824.91;5031269;28;20119;-70
2023/04/17 08:45:06;;;;;;;13.80;9.30;;;;;;;14.24;34.84;102823.28;5031931;28;20033;-70
2023/04/17 08:47:33;;;;;;;14.65;9.20;;;;;;;14.05;34.44;102822.88;5031609;28;20079;-70
2023/04/17 08:50:06;;;;;;;14.73;10.35;;;;;;;14.39;34.96;102819.41;5029559;28;20037;-69
2023/04/17 08:52:31;;;;;;;15.77;9.63;;;;;;;14.64;34.35;102823.16;5033418;28;20533;-70
2023/04/17 08:54:57;;;;;;;14.52;10.18;;;;;;;14.93;33.34;102821.53;5028073;28;20041;-69
2023/04/17 08:57:22;;;;;;;17.00;9.10;;;;;;;15.10;33.07;102811.38;5030734;28;20064;-69
2023/04/17 08:59:48;;;;;;;13.18;9.73;;;;;;;15.29;32.70;102816.16;5031293;28;20028;-69
2023/04/17 09:02:13;;;;;;;12.35;8.93;;;;;;;14.62;33.73;102811.81;5031097;28;20610;-69
2023/04/17 09:04:43;;;;;;;14.25;9.48;;;;;;;14.86;33.14;102822.63;5025137;28;20520;-70
2023/04/17 09:07:11;;;;;;;17.98;9.35;;;;;;;14.95;33.13;102814.44;5014462;28;20477;-70
2023/04/17 09:09:47;;;;;;;13.90;8.98;;;;;;;15.28;32.67;102819.69;5017889;28;20072;-70
2023/04/17 09:12:13;;;;;;;15.95;9.73;;;;;;;15.12;32.88;102819.22;4996514;28;20033;-72
2023/04/17 09:14:39;;;;;;;11.10;8.60;;;;;;;15.48;32.39;102825.25;5019332;28;20044;-71
2023/04/17 09:17:05;;;;;;;15.98;9.20;;;;;;;15.31;31.90;102825.72;5004695;28;20571;-71
2023/04/17 09:19:30;;;;;;;16.75;9.10;;;;;;;15.33;32.40;102820.44;5003828;28;20084;-72
2023/04/17 09:21:56;;;;;;;13.32;8.77;;;;;;;15.37;31.59;102822.03;5008094;28;20627;-69
2023/04/17 09:24:36;;;;;;;16.65;8.73;;;;;;;15.55;31.91;102813.59;5009044;28;20522;-71
2023/04/17 09:27:23;;;;;;;11.82;8.07;;;;;;;15.59;30.51;102820.50;4990725;28;20043;-70
2023/04/17 09:29:56;;;;;;;12.45;8.65;;;;;;;15.22;31.01;102823.38;5009339;28;20042;-70
2023/04/17 09:32:23;;;;;;;11.60;8.30;;;;;;;15.38;32.08;102815.88;4991305;28;20870;-70
2023/04/17 09:34:49;;;;;;;12.25;8.85;;;;;;;15.50;30.93;102817.28;5019455;28;20047;-71
2023/04/17 09:37:15;;;;;;;16.17;9.35;;;;;;;15.74;30.22;102826.22;5011803;28;20038;-71
2023/04/17 09:39:56;;;;;;;13.40;8.18;;;;;;;15.68;31.44;102821.97;5010084;28;20053;-72
2023/04/17 09:42:22;;;;;;;12.35;8.55;;;;;;;15.75;30.08;102817.38;5032548;28;20032;-70
2023/04/17 09:44:48;;;;;;;9.63;8.23;;;;;;;15.72;30.91;102817.50;5031013;28;20033;-72
2023/04/17 09:47:16;;;;;;;13.68;9.25;;;;;;;15.91;30.82;102823.91;5032861;28;20033;-70
2023/04/17 09:49:48;;;;;;;13.85;7.78;;;;;;;16.43;31.54;102821.38;5029363;28;20036;-71
2023/04/17 09:52:15;;;;;;;9.38;7.03;;;;;;;16.25;29.40;102824.63;5022263;28;20043;-72
2023/04/17 09:54:42;;;;;;;13.88;8.55;;;;;;;16.61;29.71;102830.44;5029781;28;20060;-70
2023/04/17 09:57:09;;;;;;;9.65;8.10;;;;;;;16.41;29.35;102817.91;5031390;28;20029;-70
2023/04/17 09:59:43;;;;;;;13.20;8.43;;;;;;;16.32;29.77;102821.72;5025574;28;21574;-71
2023/04/17 10:02:11;;;;;;;10.32;7.88;;;;;;;15.93;30.18;102823.84;5013670;28;20112;-70
2023/04/17 10:04:41;;;;;;;13.80;8.55;;;;;;;15.61;30.21;102816.97;5027427;28;20533;-70
2023/04/17 10:07:06;;;;;;;11.82;8.40;;;;;;;15.34;32.00;102822.13;5030131;28;20119;-71
2023/04/17 10:09:32;;;;;;;13.45;8.35;;;;;;;15.83;31.62;102828.56;5014941;28;20047;-71
2023/04/17 10:12:00;;;;;;;14.75;9.23;;;;;;;15.47;31.70;102827.91;4992781;28;20572;-70
2023/04/17 10:14:36;;;;;;;19.02;11.15;;;;;;;15.04;32.14;102826.50;5007830;28;20526;-70
2023/04/17 10:17:22;;;;;;;15.38;9.00;;;;;;;15.21;32.14;102818.97;5003283;28;20121;-71
2023/04/17 10:19:48;;;;;;;13.50;8.68;;;;;;;15.11;31.90;102828.91;5000865;28;20659;-70
2023/04/17 10:22:19;;;;;;;16.92;9.93;;;;;;;15.05;32.38;102823.81;5007160;28;20037;-71
2023/04/17 10:24:47;;;;;;;13.73;8.90;;;;;;;15.29;32.61;102824.06;5008165;28;20791;-70
2023/04/17 10:27:25;;;;;;;14.82;8.38;;;;;;;15.50;32.34;102826.03;5008694;28;20045;-70
2023/04/17 10:29:55;;;;;;;13.50;9.68;;;;;;;15.77;30.77;102823.47;5008795;28;20037;-71
2023/04/17 10:32:25;;;;;;;16.23;7.85;;;;;;;15.82;31.34;102828.59;5006561;28;20037;-71
2023/04/17 10:34:57;;;;;;;12.18;7.57;;;;;;;15.74;31.22;102831.47;5005811;28;20052;-70
2023/04/17 10:37:46;;;;;;;15.50;8.15;;;;;;;15.91;31.04;102821.28;4991216;28;20491;-71
2023/04/17 10:40:19;;;;;;;13.45;7.75;;;;;;;15.78;31.13;102828.69;5008348;28;20050;-71
2023/04/17 10:43:19;;;;;;;13.25;8.27;;;;;;;15.84;30.46;102819.75;5009929;28;20471;-71
2023/04/17 10:45:56;;;;;;;10.77;7.13;;;;;;;15.12;30.97;102827.13;5009693;28;20045;-70
2023/04/17 10:48:33;;;;;;;14.25;8.10;;;;;;;15.41;30.95;102817.56;5004748;28;20826;-71
2023/04/17 10:51:25;;;;;;;10.18;7.68;;;;;;;15.87;30.55;102819.66;5002674;28;20042;-71
2023/04/17 10:53:55;;;;;;;14.20;7.93;;;;;;;15.40;31.89;102821.97;5004932;28;20042;-70
2023/04/17 10:56:27;;;;;;;12.18;7.93;;;;;;;15.77;31.00;102821.72;5000638;28;20483;-71
2023/04/17 10:59:12;;;;;;;11.85;7.18;;;;;;;15.20;31.63;102819.88;5017064;28;20046;-70
2023/04/17 11:01:46;;;;;;;12.30;8.18;;;;;;;15.86;30.99;102817.91;5008407;28;20030;-70
2023/04/17 11:04:18;;;;;;;12.43;7.53;;;;;;;15.97;30.33;102813.19;5007661;28;20037;-72
2023/04/17 11:06:44;;;;;;;11.45;7.18;;;;;;;16.28;30.29;102816.59;4992189;28;20042;-70
2023/04/17 11:09:10;;;;;;;12.70;7.68;;;;;;;15.94;30.87;102815.91;5011021;28;20052;-71
2023/04/17 11:11:41;;;;;;;12.30;7.35;;;;;;;16.33;30.06;102812.03;5004086;28;20585;-69
2023/04/17 11:14:18;;;;;;;9.37;7.63;;;;;;;16.18;28.69;102816.06;5007542;28;20064;-71
2023/04/17 11:16:46;;;;;;;14.48;8.18;;;;;;;15.57;30.38;102808.25;5008930;28;20264;-70
2023/04/17 11:19:17;;;;;;;11.95;7.45;;;;;;;15.93;29.75;102803.63;5006426;28;20041;-73